createdAt,value
2023-01-15T00:00:11.157Z,94210.34
2023-01-15T00:02:37.518Z,94219.28
2023-01-15T00:05:03.937Z,94209.03
2023-01-15T00:07:30.283Z,94211.31
2023-01-15T00:09:56.599Z,94215.84
2023-01-15T00:12:22.928Z,94205.59
2023-01-15T00:14:49.820Z,94222.28
2023-01-15T00:19:45.944Z,94213.59
2023-01-15T00:22:12.322Z,94220.50
2023-01-15T00:24:39.044Z,94210.69
2023-01-15T00:27:05.438Z,94217.16
2023-01-15T00:29:31.785Z,94208.28
2023-01-15T00:31:58.110Z,94204.63
2023-01-15T00:34:24.983Z,94191.94
2023-01-15T00:36:51.419Z,94197.16
2023-01-15T00:39:17.780Z,94192.16
2023-01-15T00:41:44.235Z,94195.00
2023-01-15T00:44:10.762Z,94189.06
2023-01-15T00:46:37.130Z,94169.63
2023-01-15T00:49:03.479Z,94151.94
2023-01-15T00:51:29.845Z,94154.50
2023-01-15T00:53:56.239Z,94152.66
2023-01-15T00:56:22.639Z,94152.13
2023-01-15T00:58:48.977Z,94165.31
2023-01-15T01:01:15.365Z,94156.13
2023-01-15T01:03:41.889Z,94145.25
2023-01-15T01:06:08.222Z,94139.34
2023-01-15T01:08:34.600Z,94143.25
2023-01-15T01:11:00.940Z,94140.00
2023-01-15T01:13:27.306Z,94118.91
2023-01-15T01:15:53.679Z,94131.91
2023-01-15T01:18:20.026Z,94129.47
2023-01-15T01:20:46.405Z,94144.16
2023-01-15T01:23:12.789Z,94137.81
2023-01-15T01:25:39.121Z,94133.66
2023-01-15T01:28:05.480Z,94138.78
2023-01-15T01:30:31.798Z,94145.69
2023-01-15T01:32:58.140Z,94123.00
2023-01-15T01:35:24.506Z,94128.56
2023-01-15T01:37:50.900Z,94131.00
2023-01-15T01:40:17.306Z,94132.16
2023-01-15T01:42:43.635Z,94120.91
2023-01-15T01:45:10.030Z,94128.19
2023-01-15T01:47:36.353Z,94137.50
2023-01-15T01:50:02.674Z,94121.47
2023-01-15T01:52:28.991Z,94114.38
2023-01-15T01:54:55.356Z,94109.81
2023-01-15T01:57:22.427Z,94114.38
2023-01-15T01:59:48.886Z,94113.13
2023-01-15T02:02:15.378Z,94122.06
2023-01-15T02:04:41.958Z,94116.03
2023-01-15T02:07:08.332Z,94116.81
2023-01-15T02:09:34.858Z,94104.31
2023-01-15T02:12:01.250Z,94100.38
2023-01-15T02:14:27.588Z,94108.56
2023-01-15T02:16:53.954Z,94099.59
2023-01-15T02:19:20.299Z,94097.44
2023-01-15T02:21:46.708Z,94098.50
2023-01-15T02:24:13.077Z,94098.97
2023-01-15T02:26:39.779Z,94092.97
2023-01-15T02:29:07.252Z,94087.38
2023-01-15T02:31:33.677Z,94094.00
2023-01-15T02:34:00.123Z,94088.34
2023-01-15T02:36:26.771Z,94097.34
2023-01-15T02:38:53.144Z,94092.06
2023-01-15T02:41:19.779Z,94089.28
2023-01-15T02:43:46.286Z,94100.47
2023-01-15T02:46:12.741Z,94094.56
2023-01-15T02:48:39.128Z,94106.38
2023-01-15T02:51:06.518Z,94104.34
2023-01-15T02:53:32.899Z,94109.28
2023-01-15T02:55:59.239Z,94106.38
2023-01-15T02:58:25.981Z,94110.44
2023-01-15T03:00:52.482Z,94097.44
2023-01-15T03:03:18.885Z,94100.84
2023-01-15T03:05:45.225Z,94110.22
2023-01-15T03:08:11.604Z,94101.84
2023-01-15T03:10:37.944Z,94101.03
2023-01-15T03:13:04.275Z,94104.88
2023-01-15T03:15:33.700Z,94106.09
2023-01-15T03:18:00.131Z,94109.72
2023-01-15T03:20:27.521Z,94114.97
2023-01-15T03:22:53.877Z,94112.97
2023-01-15T03:25:20.256Z,94104.91
2023-01-15T03:27:46.610Z,94101.81
2023-01-15T03:30:12.981Z,94082.50
2023-01-15T03:32:39.390Z,94095.69
2023-01-15T03:35:06.783Z,94100.53
2023-01-15T03:37:33.464Z,94090.53
2023-01-15T03:39:59.832Z,94080.03
2023-01-15T03:42:26.209Z,94087.78
2023-01-15T03:44:52.571Z,94083.13
2023-01-15T03:47:18.982Z,94081.13
2023-01-15T03:49:45.300Z,94087.16
2023-01-15T03:52:11.626Z,94083.28
2023-01-15T03:54:37.989Z,94081.81
2023-01-15T03:57:04.336Z,94083.19
2023-01-15T03:59:30.715Z,94089.59
2023-01-15T04:01:57.525Z,94082.00
2023-01-15T04:04:23.998Z,94093.91
2023-01-15T04:06:50.354Z,94086.03
2023-01-15T04:09:16.724Z,94085.84
2023-01-15T04:11:43.249Z,94084.06
2023-01-15T04:14:11.959Z,94092.31
2023-01-15T04:16:39.352Z,94077.53
2023-01-15T04:19:05.705Z,94082.50
2023-01-15T04:21:32.194Z,94076.66
2023-01-15T04:23:58.560Z,94087.94
2023-01-15T04:26:27.646Z,94087.78
2023-01-15T04:28:54.222Z,94071.44
2023-01-15T04:31:20.649Z,94055.13
2023-01-15T04:33:49.537Z,94047.97
2023-01-15T04:36:15.921Z,94040.06
2023-01-15T04:38:42.603Z,94031.41
2023-01-15T04:41:09.082Z,94017.09
2023-01-15T04:43:35.544Z,94033.91
2023-01-15T04:46:02.139Z,94029.72
2023-01-15T04:48:28.480Z,94018.63
2023-01-15T04:50:58.228Z,94022.72
2023-01-15T04:53:24.963Z,94021.91
2023-01-15T04:55:51.320Z,94034.16
2023-01-15T04:58:17.653Z,94032.53
2023-01-15T05:00:44.034Z,94029.47
2023-01-15T05:03:10.431Z,94015.84
2023-01-15T05:05:36.788Z,94023.03
2023-01-15T05:08:05.212Z,94015.28
2023-01-15T05:10:31.683Z,94007.56
2023-01-15T05:12:59.221Z,94009.19
2023-01-15T05:15:25.618Z,93999.06
2023-01-15T05:17:52.001Z,93989.75
2023-01-15T05:20:23.651Z,93983.88
2023-01-15T05:22:50.007Z,93972.91
2023-01-15T05:25:16.401Z,93979.00
2023-01-15T05:27:42.791Z,93956.28
2023-01-15T05:30:09.171Z,93961.78
2023-01-15T05:32:35.764Z,93950.63
2023-01-15T05:35:02.468Z,93945.53
2023-01-15T05:37:28.848Z,93943.31
2023-01-15T05:39:55.185Z,93940.69
2023-01-15T05:42:21.546Z,93944.97
2023-01-15T05:44:47.926Z,93937.66
2023-01-15T05:47:14.312Z,93921.78
2023-01-15T05:49:40.651Z,93932.34
2023-01-15T05:52:07.013Z,93952.28
2023-01-15T05:54:33.354Z,93940.09
2023-01-15T05:56:59.689Z,93925.84
2023-01-15T05:59:26.243Z,93936.66
2023-01-15T06:01:52.752Z,93943.53
2023-01-15T06:04:19.195Z,93943.34
2023-01-15T06:06:48.092Z,93949.06
2023-01-15T06:09:14.475Z,93944.38
2023-01-15T06:11:40.842Z,93938.06
2023-01-15T06:14:07.418Z,93935.41
2023-01-15T06:16:34.119Z,93926.88
2023-01-15T06:19:00.508Z,93918.94
2023-01-15T06:21:26.897Z,93918.94
2023-01-15T06:23:53.240Z,93916.88
2023-01-15T06:26:19.623Z,93920.13
2023-01-15T06:28:45.979Z,93923.56
2023-01-15T06:31:12.394Z,93909.13
2023-01-15T06:33:38.813Z,93913.38
2023-01-15T06:36:06.219Z,93908.28
2023-01-15T06:38:32.627Z,93903.59
2023-01-15T06:40:59.002Z,93910.50
2023-01-15T06:43:25.474Z,93899.34
2023-01-15T06:45:51.853Z,93894.84
2023-01-15T06:48:18.181Z,93908.28
2023-01-15T06:50:44.558Z,93906.69
2023-01-15T06:53:10.936Z,93916.59
2023-01-15T06:55:38.299Z,93902.34
2023-01-15T06:58:05.006Z,93901.31
2023-01-15T07:00:31.390Z,93913.56
2023-01-15T07:02:57.769Z,93906.63
2023-01-15T07:05:26.194Z,93904.78
2023-01-15T07:07:52.672Z,93900.72
2023-01-15T07:10:19.047Z,93913.50
2023-01-15T07:12:45.488Z,93897.38
2023-01-15T07:15:11.831Z,93898.59
2023-01-15T07:17:38.205Z,93888.94
2023-01-15T07:20:04.705Z,93890.59
2023-01-15T07:22:31.053Z,93889.63
2023-01-15T07:24:57.846Z,93902.03
2023-01-15T07:27:24.863Z,93899.19
2023-01-15T07:29:51.305Z,93897.78
2023-01-15T07:32:18.195Z,93893.88
2023-01-15T07:34:44.578Z,93882.94
2023-01-15T07:37:10.920Z,93884.19
2023-01-15T07:39:37.299Z,93881.72
2023-01-15T07:42:03.693Z,93880.47
2023-01-15T07:44:32.323Z,93861.50
2023-01-15T07:46:58.707Z,93855.34
2023-01-15T07:49:25.054Z,93861.00
2023-01-15T07:51:51.486Z,93867.34
2023-01-15T07:54:17.884Z,93865.56
2023-01-15T07:56:46.492Z,93865.34
2023-01-15T07:59:12.839Z,93861.25
2023-01-15T08:01:39.457Z,93867.13
2023-01-15T08:04:06.509Z,93868.78
2023-01-15T08:06:32.905Z,93882.19
2023-01-15T08:09:03.841Z,93890.19
2023-01-15T08:11:30.221Z,93898.50
2023-01-15T08:13:56.596Z,93885.88
2023-01-15T08:16:23.172Z,93911.72
2023-01-15T08:18:51.904Z,93917.28
2023-01-15T08:21:18.287Z,93929.91
2023-01-15T08:23:44.657Z,93932.16
2023-01-15T08:26:10.990Z,93936.44
2023-01-15T08:28:37.351Z,93930.34
2023-01-15T08:31:03.731Z,93920.75
2023-01-15T08:33:30.329Z,93944.97
2023-01-15T08:35:56.774Z,93940.47
2023-01-15T08:38:25.169Z,93946.09
2023-01-15T08:40:51.803Z,93979.72
2023-01-15T08:43:18.202Z,93994.38
2023-01-15T08:45:46.597Z,94016.81
2023-01-15T08:48:12.970Z,94032.13
2023-01-15T08:50:39.421Z,94055.19
2023-01-15T08:53:07.809Z,94053.72
2023-01-15T08:55:34.360Z,94067.75
2023-01-15T08:58:00.907Z,94065.63
2023-01-15T09:00:27.291Z,94079.78
2023-01-15T09:02:53.711Z,94085.25
2023-01-15T09:05:20.368Z,94086.34
2023-01-15T09:07:48.832Z,94095.28
2023-01-15T09:10:17.838Z,94119.88
2023-01-15T09:12:44.212Z,94136.53
2023-01-15T09:15:10.552Z,94150.47
2023-01-15T09:17:36.877Z,94152.94
2023-01-15T09:20:03.739Z,94148.41
2023-01-15T09:22:30.250Z,94168.25
2023-01-15T09:24:59.409Z,94180.91
2023-01-15T09:27:26.210Z,94191.81
2023-01-15T09:29:54.648Z,94209.22
2023-01-15T09:32:23.325Z,94210.88
2023-01-15T09:34:49.697Z,94221.56
2023-01-15T09:37:18.878Z,94229.75
2023-01-15T09:39:45.248Z,94231.53
2023-01-15T09:42:11.639Z,94245.44
2023-01-15T09:44:40.322Z,94246.72
2023-01-15T09:47:07.710Z,94261.63
2023-01-15T09:49:34.036Z,94267.59
2023-01-15T09:52:00.395Z,94299.88
2023-01-15T09:54:29.357Z,94306.97
2023-01-15T09:56:55.706Z,94314.50
2023-01-15T09:59:22.153Z,94324.03
2023-01-15T10:01:48.536Z,94330.63
2023-01-15T10:04:15.034Z,94341.31
2023-01-15T10:06:41.597Z,94353.94
2023-01-15T10:09:07.950Z,94361.78
2023-01-15T10:11:34.409Z,94364.13
2023-01-15T10:14:00.846Z,94373.31
2023-01-15T10:16:34.401Z,94380.19
2023-01-15T10:19:03.038Z,94378.22
2023-01-15T10:21:31.740Z,94379.88
2023-01-15T10:23:58.320Z,94384.78
2023-01-15T10:26:25.733Z,94390.72
2023-01-15T10:28:52.483Z,94387.78
2023-01-15T10:31:19.896Z,94385.63
2023-01-15T10:33:46.320Z,94395.81
2023-01-15T10:36:12.706Z,94401.91
2023-01-15T10:38:40.340Z,94409.91
2023-01-15T10:41:06.687Z,94412.69
2023-01-15T10:43:33.100Z,94411.19
2023-01-15T10:45:59.485Z,94415.47
2023-01-15T10:48:25.864Z,94425.28
2023-01-15T10:50:52.506Z,94431.66
2023-01-15T10:53:18.957Z,94430.97
2023-01-15T10:55:45.566Z,94437.50
2023-01-15T10:58:12.296Z,94457.50
2023-01-15T11:00:38.908Z,94459.13
2023-01-15T11:03:05.421Z,94462.44
2023-01-15T11:05:31.791Z,94470.47
2023-01-15T11:10:44.669Z,94485.66
2023-01-15T11:13:11.026Z,94490.41
2023-01-15T11:15:37.597Z,94497.66
2023-01-15T11:18:04.075Z,94505.38
2023-01-15T11:20:30.521Z,94507.94
2023-01-15T11:23:02.240Z,94506.50
2023-01-15T11:25:28.804Z,94517.53
2023-01-15T11:27:57.721Z,94520.22
2023-01-15T11:30:24.287Z,94525.63
2023-01-15T11:32:53.986Z,94527.19
2023-01-15T11:37:57.746Z,94537.22
2023-01-15T11:40:24.128Z,94545.06
2023-01-15T11:42:51.521Z,94547.16
2023-01-15T11:45:20.324Z,94556.97
2023-01-15T11:47:47.587Z,94561.56
2023-01-15T11:50:14.163Z,94570.59
2023-01-15T11:52:40.554Z,94560.72
2023-01-15T11:55:06.972Z,94572.69
2023-01-15T11:57:33.340Z,94573.00
2023-01-15T12:00:00.895Z,94577.81
2023-01-15T12:02:29.378Z,94575.81
2023-01-15T12:04:58.038Z,94581.97
2023-01-15T12:07:25.557Z,94586.28
2023-01-15T12:09:51.897Z,94586.78
2023-01-15T12:12:18.225Z,94596.56
2023-01-15T12:14:44.569Z,94589.13
2023-01-15T12:17:11.342Z,94588.72
2023-01-15T12:19:37.833Z,94593.09
2023-01-15T12:22:07.071Z,94597.44
2023-01-15T12:24:35.684Z,94606.06
2023-01-15T12:29:41.572Z,94608.16
2023-01-15T12:32:15.778Z,94613.53
2023-01-15T12:34:45.857Z,94612.44
2023-01-15T12:37:12.311Z,94614.81
2023-01-15T12:39:38.726Z,94619.38
2023-01-15T12:42:05.302Z,94611.53
2023-01-15T12:44:32.218Z,94609.59
2023-01-15T12:47:02.944Z,94613.44
2023-01-15T12:49:30.897Z,94605.44
2023-01-15T12:51:57.329Z,94606.53
2023-01-15T12:54:23.841Z,94612.81
2023-01-15T12:56:52.333Z,94614.06
2023-01-15T12:59:18.880Z,94621.63
2023-01-15T13:01:47.706Z,94612.59
2023-01-15T13:04:15.552Z,94620.88
2023-01-15T13:06:44.217Z,94615.38
2023-01-15T13:09:10.598Z,94605.75
2023-01-15T13:11:36.981Z,94603.44
2023-01-15T13:14:03.372Z,94593.94
2023-01-15T13:16:30.913Z,94588.44
2023-01-15T13:18:59.331Z,94599.03
2023-01-15T13:21:25.888Z,94590.53
2023-01-15T13:23:53.351Z,94583.78
2023-01-15T13:26:20.420Z,94575.66
2023-01-15T13:28:48.868Z,94582.78
2023-01-15T13:31:15.273Z,94578.50
2023-01-15T13:33:42.242Z,94579.44
2023-01-15T13:36:08.660Z,94569.41
2023-01-15T13:38:35.006Z,94567.94
2023-01-15T13:41:01.497Z,94563.97
2023-01-15T13:43:30.295Z,94560.09
2023-01-15T13:45:56.916Z,94548.13
2023-01-15T13:48:23.847Z,94559.59
2023-01-15T13:50:50.470Z,94564.50
2023-01-15T13:53:16.838Z,94563.16
2023-01-15T13:55:43.227Z,94559.69
2023-01-15T13:58:09.772Z,94564.34
2023-01-15T14:00:36.320Z,94559.09
2023-01-15T14:03:02.847Z,94563.16
2023-01-15T14:05:29.317Z,94569.31
2023-01-15T14:07:57.714Z,94564.31
2023-01-15T14:10:24.674Z,94560.81
2023-01-15T14:12:52.026Z,94558.41
2023-01-15T14:15:19.409Z,94553.50
2023-01-15T14:17:45.754Z,94546.84
2023-01-15T14:20:12.233Z,94549.00
2023-01-15T14:25:20.061Z,94554.31
2023-01-15T14:27:46.418Z,94554.97
2023-01-15T14:30:12.800Z,94553.00
2023-01-15T14:32:39.131Z,94547.19
2023-01-15T14:35:05.593Z,94542.69
2023-01-15T14:37:32.571Z,94551.41
2023-01-15T14:39:58.951Z,94550.50
2023-01-15T14:42:25.299Z,94548.72
2023-01-15T14:44:52.625Z,94556.16
2023-01-15T14:47:19.398Z,94552.69
2023-01-15T14:49:45.810Z,94569.97
2023-01-15T14:52:12.213Z,94564.34
2023-01-15T14:54:38.589Z,94579.09
2023-01-15T14:57:04.962Z,94569.66
2023-01-15T14:59:33.951Z,94568.31
2023-01-15T15:02:02.501Z,94574.19
2023-01-15T15:04:28.984Z,94564.22
2023-01-15T15:06:58.355Z,94565.19
2023-01-15T15:09:27.563Z,94565.94
2023-01-15T15:11:53.913Z,94563.09
2023-01-15T15:14:20.276Z,94559.56
2023-01-15T15:16:46.764Z,94560.03
2023-01-15T15:19:13.121Z,94557.16
2023-01-15T15:21:39.505Z,94552.84
2023-01-15T15:24:05.913Z,94559.03
2023-01-15T15:26:32.416Z,94551.44
2023-01-15T15:28:58.761Z,94555.53
2023-01-15T15:31:27.173Z,94556.66
2023-01-15T15:33:59.489Z,94558.66
2023-01-15T15:36:26.705Z,94559.66
2023-01-15T15:38:55.223Z,94557.94
2023-01-15T15:41:21.676Z,94555.94
2023-01-15T15:43:48.100Z,94560.84
2023-01-15T16:13:09.635Z,94559.16
2023-01-15T16:15:36.033Z,94557.97
2023-01-15T16:18:02.797Z,94549.69
2023-01-15T16:20:29.152Z,94540.88
2023-01-15T16:22:55.499Z,94540.59
2023-01-15T16:25:22.922Z,94538.41
2023-01-15T16:27:49.417Z,94526.16
2023-01-15T16:30:16.766Z,94534.00
2023-01-15T16:32:43.102Z,94530.06
2023-01-15T16:35:10.505Z,94524.94
2023-01-15T16:37:36.843Z,94524.84
2023-01-15T16:40:03.260Z,94522.97
2023-01-15T16:42:29.589Z,94530.66
2023-01-15T16:44:55.966Z,94525.19
2023-01-15T16:47:22.574Z,94525.09
2023-01-15T16:49:48.955Z,94517.63
2023-01-15T16:52:15.329Z,94513.66
2023-01-15T16:54:41.716Z,94516.16
2023-01-15T16:57:08.286Z,94511.22
2023-01-15T16:59:34.669Z,94535.13
2023-01-15T17:02:02.140Z,94530.19
2023-01-15T17:04:31.627Z,94542.00
2023-01-15T17:06:58.003Z,94548.03
2023-01-15T17:09:25.682Z,94542.66
2023-01-15T17:11:53.258Z,94537.53
2023-01-15T17:14:19.606Z,94537.78
2023-01-15T17:16:46.166Z,94528.28
2023-01-15T17:19:12.566Z,94529.53
2023-01-15T17:21:39.137Z,94535.06
2023-01-15T17:24:05.616Z,94518.72
2023-01-15T17:26:31.994Z,94528.75
2023-01-15T17:28:58.331Z,94525.63
2023-01-15T17:31:25.657Z,94521.06
2023-01-15T17:33:54.672Z,94517.94
2023-01-15T17:36:21.048Z,94513.22
2023-01-15T17:38:47.435Z,94504.06
2023-01-15T17:41:13.947Z,94508.09
2023-01-15T17:43:40.523Z,94509.06
2023-01-15T17:46:06.923Z,94501.25
2023-01-15T17:48:33.320Z,94501.13
2023-01-15T17:51:01.668Z,94485.19
2023-01-15T17:53:28.059Z,94484.25
2023-01-15T17:55:54.465Z,94482.31
2023-01-15T17:58:21.219Z,94482.16
2023-01-15T18:00:48.620Z,94477.63
2023-01-15T18:03:15.635Z,94476.66
2023-01-15T18:05:42.019Z,94467.88
2023-01-15T18:08:10.901Z,94476.50
2023-01-15T18:10:37.257Z,94472.81
2023-01-15T18:13:04.986Z,94479.44
2023-01-15T18:15:33.475Z,94475.88
2023-01-15T18:17:59.885Z,94474.38
2023-01-15T18:20:26.265Z,94466.00
2023-01-15T18:22:54.964Z,94463.81
2023-01-15T18:25:21.376Z,94462.88
2023-01-15T18:27:47.908Z,94448.00
2023-01-15T18:30:14.297Z,94450.50
2023-01-15T18:32:40.992Z,94445.97
2023-01-15T18:35:07.671Z,94453.78
2023-01-15T18:37:36.340Z,94445.13
2023-01-15T18:40:02.697Z,94449.81
2023-01-15T18:42:29.484Z,94446.28
2023-01-15T18:44:55.867Z,94437.50
2023-01-15T18:47:32.988Z,94430.66
2023-01-15T18:49:59.460Z,94441.66
2023-01-15T18:52:28.161Z,94432.31
2023-01-15T18:54:54.576Z,94433.94
2023-01-15T18:57:20.930Z,94424.34
2023-01-15T18:59:49.580Z,94425.16
2023-01-15T19:02:17.025Z,94425.03
2023-01-15T19:04:44.105Z,94418.03
2023-01-15T19:07:14.336Z,94411.03
2023-01-15T19:09:40.886Z,94403.22
2023-01-15T19:12:08.118Z,94395.38
2023-01-15T19:14:36.880Z,94391.81
2023-01-15T19:17:05.797Z,94397.16
2023-01-15T19:19:32.406Z,94392.22
2023-01-15T19:21:58.802Z,94387.97
2023-01-15T19:24:25.343Z,94377.69
2023-01-15T19:26:51.814Z,94382.06
2023-01-15T19:29:20.246Z,94385.78
2023-01-15T19:31:47.091Z,94382.91
2023-01-15T19:34:33.262Z,94373.19
2023-01-15T19:36:59.805Z,94365.38
2023-01-15T19:39:26.481Z,94364.53
2023-01-15T19:41:55.131Z,94360.44
2023-01-15T19:44:22.544Z,94362.91
2023-01-15T19:46:48.995Z,94362.91
2023-01-15T19:49:15.422Z,94355.22
2023-01-15T19:51:44.123Z,94357.00
2023-01-15T19:54:10.728Z,94357.00
2023-01-15T19:56:37.087Z,94353.06
2023-01-15T19:59:06.582Z,94340.84
2023-01-15T20:01:33.090Z,94333.03
2023-01-15T20:03:59.698Z,94323.16
2023-01-15T20:06:26.310Z,94320.13
2023-01-15T20:08:54.849Z,94318.50
2023-01-15T20:11:21.404Z,94307.13
2023-01-15T20:13:47.810Z,94311.91
2023-01-15T20:16:14.543Z,94307.22
2023-01-15T20:18:43.172Z,94302.66
2023-01-15T20:21:09.859Z,94303.88
2023-01-15T20:23:36.817Z,94304.31
2023-01-15T20:26:06.953Z,94297.31
2023-01-15T20:28:33.522Z,94298.53
2023-01-15T20:31:04.270Z,94299.31
2023-01-15T20:33:31.887Z,94291.06
2023-01-15T20:35:59.014Z,94282.53
2023-01-15T20:38:27.720Z,94282.66
2023-01-15T20:40:54.537Z,94281.94
2023-01-15T20:43:20.955Z,94277.84
2023-01-15T20:45:47.750Z,94279.75
2023-01-15T20:48:15.211Z,94283.31
2023-01-15T20:50:43.668Z,94269.84
2023-01-15T20:53:10.333Z,94265.63
2023-01-15T20:55:54.435Z,94251.84
2023-01-15T20:58:25.446Z,94256.47
2023-01-15T21:00:52.174Z,94251.25
2023-01-15T21:03:18.860Z,94257.22
2023-01-15T21:05:45.256Z,94258.47
2023-01-15T21:08:13.925Z,94246.19
2023-01-15T21:10:40.527Z,94237.31
2023-01-15T21:13:06.945Z,94236.19
2023-01-15T21:15:34.290Z,94227.22
2023-01-15T21:18:03.974Z,94210.16
2023-01-15T21:20:30.802Z,94206.31
2023-01-15T21:22:57.158Z,94193.53
2023-01-15T21:25:23.789Z,94187.94
2023-01-15T21:27:50.239Z,94184.75
2023-01-15T21:30:16.625Z,94180.50
2023-01-15T21:32:43.170Z,94171.19
2023-01-15T21:35:10.412Z,94175.75
2023-01-15T21:37:38.962Z,94176.84
2023-01-15T21:40:05.309Z,94171.03
2023-01-15T21:42:31.719Z,94167.59
2023-01-15T21:44:58.103Z,94159.63
2023-01-15T21:47:24.498Z,94155.56
2023-01-15T21:49:51.075Z,94162.91
2023-01-15T21:52:17.585Z,94157.78
2023-01-15T21:54:45.030Z,94151.88
2023-01-15T21:57:11.426Z,94143.97
2023-01-15T21:59:44.949Z,94140.41
2023-01-15T22:02:12.494Z,94142.72
2023-01-15T22:04:39.958Z,94127.22
2023-01-15T22:07:07.418Z,94125.53
2023-01-15T22:09:34.804Z,94123.19
2023-01-15T22:12:08.719Z,94110.75
2023-01-15T22:14:35.074Z,94107.63
2023-01-15T22:17:01.474Z,94092.66
2023-01-15T22:19:27.872Z,94087.88
2023-01-15T22:21:54.480Z,94076.16
2023-01-15T22:24:20.878Z,94066.72
2023-01-15T22:26:47.228Z,94067.38
2023-01-15T22:29:13.778Z,94060.81
2023-01-15T22:31:40.129Z,94051.34
2023-01-15T22:34:06.469Z,94065.53
2023-01-15T22:36:33.011Z,94061.72
2023-01-15T22:39:01.581Z,94051.28
2023-01-15T22:41:28.389Z,94039.50
2023-01-15T22:43:55.037Z,94035.63
2023-01-15T22:46:21.567Z,94037.03
2023-01-15T22:48:47.949Z,94027.84
2023-01-15T22:51:16.867Z,94029.22
2023-01-15T22:53:43.198Z,94026.84
2023-01-15T22:56:09.620Z,94010.69
2023-01-15T22:58:38.256Z,94010.44
2023-01-15T23:01:05.069Z,94015.03
2023-01-15T23:03:31.719Z,94012.88
2023-01-15T23:05:59.093Z,94013.94
2023-01-15T23:08:25.434Z,94002.88
2023-01-15T23:10:54.309Z,93991.94
2023-01-15T23:13:27.959Z,93986.50
2023-01-15T23:15:55.414Z,93993.75
2023-01-15T23:18:21.814Z,93986.28
2023-01-15T23:20:48.293Z,93980.81
2023-01-15T23:23:15.675Z,93987.16
2023-01-15T23:25:42.009Z,93980.72
2023-01-15T23:28:09.365Z,93972.47
2023-01-15T23:30:37.680Z,93966.09
2023-01-15T23:33:04.009Z,93965.63
2023-01-15T23:35:30.455Z,93962.06
2023-01-15T23:37:57.833Z,93958.78
2023-01-15T23:40:25.104Z,93949.53
2023-01-15T23:42:51.602Z,93954.47
2023-01-15T23:45:17.957Z,93940.09
2023-01-15T23:47:44.596Z,93931.06
2023-01-15T23:50:11.201Z,93932.19
2023-01-15T23:52:41.045Z,93919.53
2023-01-15T23:55:08.433Z,93914.59
2023-01-15T23:57:34.770Z,93910.31
